Franklin, Virginia
Current Conditions -  °F | °C
As of 12:35 PM on Monday 24 Nov 2014 (Local Time) from KFKN Reporting Station
Scattered Clouds Scattered Clouds  
Wind Chill: 73°   Ceiling: Unl
Heat Index: 73°   Visibility: 10mi
Dew Point: 57°   Wind: 15mph
Humidity: 57%   Direction: 220°SW
Pressure: 29.78"   Gusts: 25mph
Location:  36.68°N, 76.92°W
Report Text: KFKN 241735Z AUTO 22013G22KT 10SM SCT035 120 23/14 A2978 RMK AO1
Loading
Personal Weather Stations






























Interactive Weather Map New forecast layout! Learn more

10-Day Weather Forecast

Advertisements
Track Severe Weather on mobile